sensor_id;sensor_type;location;lat;lon;timestamp;pressure;altitude;pressure_sealevel;temperature;humidity
85499;BME280;75903;52.510;13.396;2024-02-26T00:00:26;99900.88;;;9.49;61.97
85499;BME280;75903;52.510;13.396;2024-02-26T00:02:51;99901.31;;;9.44;62.28
85499;BME280;75903;52.510;13.396;2024-02-26T00:05:16;99901.44;;;9.43;62.42
85499;BME280;75903;52.510;13.396;2024-02-26T00:07:42;99903.94;;;9.44;61.91
85499;BME280;75903;52.510;13.396;2024-02-26T00:10:08;99898.13;;;9.41;62.91
85499;BME280;75903;52.510;13.396;2024-02-26T00:12:33;99892.47;;;9.36;62.83
85499;BME280;75903;52.510;13.396;2024-02-26T00:14:59;99890.13;;;9.33;62.80
85499;BME280;75903;52.510;13.396;2024-02-26T00:17:24;99891.25;;;9.30;63.41
85499;BME280;75903;52.510;13.396;2024-02-26T00:19:50;99889.03;;;9.26;63.42
85499;BME280;75903;52.510;13.396;2024-02-26T00:22:15;99891.13;;;9.22;63.89
85499;BME280;75903;52.510;13.396;2024-02-26T00:24:40;99868.72;;;9.09;63.35
85499;BME280;75903;52.510;13.396;2024-02-26T00:27:06;99854.22;;;9.05;63.37
85499;BME280;75903;52.510;13.396;2024-02-26T00:29:32;99880.06;;;9.19;63.39
85499;BME280;75903;52.510;13.396;2024-02-26T00:31:57;99861.09;;;9.06;64.09
85499;BME280;75903;52.510;13.396;2024-02-26T00:34:23;99887.78;;;9.20;63.62
85499;BME280;75903;52.510;13.396;2024-02-26T00:36:48;99882.41;;;9.12;64.16
85499;BME280;75903;52.510;13.396;2024-02-26T00:39:13;99891.13;;;9.13;65.16
85499;BME280;75903;52.510;13.396;2024-02-26T00:41:41;99862.50;;;9.00;64.94
85499;BME280;75903;52.510;13.396;2024-02-26T00:44:07;99869.00;;;9.06;64.77
85499;BME280;75903;52.510;13.396;2024-02-26T00:46:32;99879.50;;;9.06;65.12
85499;BME280;75903;52.510;13.396;2024-02-26T00:48:58;99876.03;;;9.05;65.84
85499;BME280;75903;52.510;13.396;2024-02-26T00:51:23;99867.22;;;8.97;66.13
85499;BME280;75903;52.510;13.396;2024-02-26T00:53:49;99871.09;;;8.93;66.29
85499;BME280;75903;52.510;13.396;2024-02-26T00:56:14;99858.78;;;8.93;66.24
85499;BME280;75903;52.510;13.396;2024-02-26T00:58:39;99860.59;;;8.93;66.75
85499;BME280;75903;52.510;13.396;2024-02-26T01:01:05;99864.72;;;8.86;67.12
85499;BME280;75903;52.510;13.396;2024-02-26T01:03:30;99860.72;;;8.82;67.59
85499;BME280;75903;52.510;13.396;2024-02-26T01:05:56;99869.16;;;8.85;66.56
85499;BME280;75903;52.510;13.396;2024-02-26T01:08:21;99866.81;;;8.82;67.50
85499;BME280;75903;52.510;13.396;2024-02-26T01:10:46;99865.56;;;8.77;67.36
85499;BME280;75903;52.510;13.396;2024-02-26T01:13:12;99860.31;;;8.77;67.72
85499;BME280;75903;52.510;13.396;2024-02-26T01:15:37;99865.81;;;8.73;67.55
85499;BME280;75903;52.510;13.396;2024-02-26T01:18:03;99866.28;;;8.69;67.20
85499;BME280;75903;52.510;13.396;2024-02-26T01:20:28;99863.22;;;8.64;68.49
85499;BME280;75903;52.510;13.396;2024-02-26T01:22:53;99865.97;;;8.62;67.34
85499;BME280;75903;52.510;13.396;2024-02-26T01:25:19;99872.91;;;8.63;67.63
85499;BME280;75903;52.510;13.396;2024-02-26T01:27:44;99861.41;;;8.55;67.78
85499;BME280;75903;52.510;13.396;2024-02-26T01:30:10;99862.53;;;8.52;68.66
85499;BME280;75903;52.510;13.396;2024-02-26T01:32:36;99859.88;;;8.62;67.51
85499;BME280;75903;52.510;13.396;2024-02-26T01:35:02;99856.16;;;8.55;68.22
85499;BME280;75903;52.510;13.396;2024-02-26T01:37:32;99856.88;;;8.57;68.56
85499;BME280;75903;52.510;13.396;2024-02-26T01:39:58;99850.09;;;8.54;67.68
85499;BME280;75903;52.510;13.396;2024-02-26T01:42:23;99845.25;;;8.59;68.62
85499;BME280;75903;52.510;13.396;2024-02-26T01:44:48;99843.31;;;8.61;68.17
85499;BME280;75903;52.510;13.396;2024-02-26T01:47:14;99843.72;;;8.66;67.83
85499;BME280;75903;52.510;13.396;2024-02-26T01:49:39;99839.72;;;8.62;67.53
85499;BME280;75903;52.510;13.396;2024-02-26T01:52:06;99848.44;;;8.63;67.27
85499;BME280;75903;52.510;13.396;2024-02-26T01:54:35;99848.16;;;8.66;66.89
85499;BME280;75903;52.510;13.396;2024-02-26T01:57:01;99848.84;;;8.68;67.45
85499;BME280;75903;52.510;13.396;2024-02-26T01:59:27;99854.53;;;8.63;67.06
85499;BME280;75903;52.510;13.396;2024-02-26T02:01:55;99850.50;;;8.59;67.39
85499;BME280;75903;52.510;13.396;2024-02-26T02:04:22;99850.63;;;8.58;67.41
85499;BME280;75903;52.510;13.396;2024-02-26T02:06:48;99856.03;;;8.56;67.42
85499;BME280;75903;52.510;13.396;2024-02-26T02:09:14;99859.63;;;8.55;66.94
85499;BME280;75903;52.510;13.396;2024-02-26T02:11:39;99860.59;;;8.54;67.21
85499;BME280;75903;52.510;13.396;2024-02-26T02:14:04;99859.34;;;8.58;67.92
85499;BME280;75903;52.510;13.396;2024-02-26T02:16:30;99852.00;;;8.52;67.67
85499;BME280;75903;52.510;13.396;2024-02-26T02:18:55;99840.28;;;8.47;67.89
85499;BME280;75903;52.510;13.396;2024-02-26T02:21:21;99847.75;;;8.51;66.91
85499;BME280;75903;52.510;13.396;2024-02-26T02:23:46;99848.56;;;8.52;66.78
85499;BME280;75903;52.510;13.396;2024-02-26T02:26:14;99854.94;;;8.49;67.18
85499;BME280;75903;52.510;13.396;2024-02-26T02:28:40;99857.25;;;8.52;68.17
85499;BME280;75903;52.510;13.396;2024-02-26T02:31:06;99858.50;;;8.48;67.51
85499;BME280;75903;52.510;13.396;2024-02-26T02:33:33;99862.13;;;8.47;68.10
85499;BME280;75903;52.510;13.396;2024-02-26T02:35:59;99849.53;;;8.41;67.78
85499;BME280;75903;52.510;13.396;2024-02-26T02:38:24;99855.03;;;8.48;67.55
85499;BME280;75903;52.510;13.396;2024-02-26T02:40:51;99856.44;;;8.42;68.52
85499;BME280;75903;52.510;13.396;2024-02-26T02:43:17;99856.97;;;8.36;67.45
85499;BME280;75903;52.510;13.396;2024-02-26T02:45:42;99856.28;;;8.34;67.93
85499;BME280;75903;52.510;13.396;2024-02-26T02:48:07;99853.94;;;8.31;68.00
85499;BME280;75903;52.510;13.396;2024-02-26T02:50:33;99863.06;;;8.27;68.28
85499;BME280;75903;52.510;13.396;2024-02-26T02:52:58;99867.59;;;8.25;69.08
85499;BME280;75903;52.510;13.396;2024-02-26T02:55:24;99868.81;;;8.21;69.46
85499;BME280;75903;52.510;13.396;2024-02-26T02:57:50;99871.28;;;8.13;69.31
85499;BME280;75903;52.510;13.396;2024-02-26T03:00:15;99870.44;;;8.13;69.20
85499;BME280;75903;52.510;13.396;2024-02-26T03:02:41;99873.72;;;7.96;70.05
85499;BME280;75903;52.510;13.396;2024-02-26T03:05:08;99867.22;;;7.90;70.05
85499;BME280;75903;52.510;13.396;2024-02-26T03:07:33;99862.91;;;7.89;70.80
85499;BME280;75903;52.510;13.396;2024-02-26T03:09:58;99865.38;;;7.81;71.60
85499;BME280;75903;52.510;13.396;2024-02-26T03:12:24;99869.66;;;7.82;70.65
85499;BME280;75903;52.510;13.396;2024-02-26T03:14:49;99864.25;;;7.74;71.00
85499;BME280;75903;52.510;13.396;2024-02-26T03:17:15;99845.16;;;7.62;70.50
85499;BME280;75903;52.510;13.396;2024-02-26T03:19:40;99873.94;;;7.83;71.19
85499;BME280;75903;52.510;13.396;2024-02-26T03:22:06;99861.81;;;7.82;70.27
85499;BME280;75903;52.510;13.396;2024-02-26T03:24:31;99869.66;;;7.82;70.92
85499;BME280;75903;52.510;13.396;2024-02-26T03:26:56;99878.06;;;7.76;70.33
85499;BME280;75903;52.510;13.396;2024-02-26T03:29:22;99866.19;;;7.72;70.82
85499;BME280;75903;52.510;13.396;2024-02-26T03:31:47;99866.59;;;7.77;70.70
85499;BME280;75903;52.510;13.396;2024-02-26T03:34:13;99867.81;;;7.73;71.03
85499;BME280;75903;52.510;13.396;2024-02-26T03:36:40;99859.16;;;7.72;70.05
85499;BME280;75903;52.510;13.396;2024-02-26T03:39:05;99858.16;;;7.73;71.04
85499;BME280;75903;52.510;13.396;2024-02-26T03:41:33;99858.56;;;7.69;71.08
85499;BME280;75903;52.510;13.396;2024-02-26T03:43:58;99865.03;;;7.65;70.39
85499;BME280;75903;52.510;13.396;2024-02-26T03:46:24;99870.97;;;7.67;70.36
85499;BME280;75903;52.510;13.396;2024-02-26T03:48:49;99876.09;;;7.68;70.59
85499;BME280;75903;52.510;13.396;2024-02-26T03:51:15;99874.97;;;7.61;70.89
85499;BME280;75903;52.510;13.396;2024-02-26T03:53:40;99878.13;;;7.65;70.40
85499;BME280;75903;52.510;13.396;2024-02-26T03:56:06;99875.09;;;7.60;70.58
85499;BME280;75903;52.510;13.396;2024-02-26T03:58:32;99872.19;;;7.63;70.88
85499;BME280;75903;52.510;13.396;2024-02-26T04:00:57;99879.25;;;7.62;71.39
85499;BME280;75903;52.510;13.396;2024-02-26T04:03:22;99877.84;;;7.58;71.35
85499;BME280;75903;52.510;13.396;2024-02-26T04:05:48;99887.22;;;7.61;71.39
85499;BME280;75903;52.510;13.396;2024-02-26T04:08:13;99881.28;;;7.59;71.11
85499;BME280;75903;52.510;13.396;2024-02-26T04:10:39;99874.63;;;7.55;70.60
85499;BME280;75903;52.510;13.396;2024-02-26T04:13:05;99882.25;;;7.58;70.95
85499;BME280;75903;52.510;13.396;2024-02-26T04:15:31;99882.69;;;7.63;71.32
85499;BME280;75903;52.510;13.396;2024-02-26T04:17:57;99887.38;;;7.59;70.86
85499;BME280;75903;52.510;13.396;2024-02-26T04:20:22;99897.19;;;7.67;70.99
85499;BME280;75903;52.510;13.396;2024-02-26T04:22:47;99864.94;;;7.46;70.76
85499;BME280;75903;52.510;13.396;2024-02-26T04:25:13;99886.97;;;7.64;70.60
85499;BME280;75903;52.510;13.396;2024-02-26T04:27:38;99889.31;;;7.67;70.16
85499;BME280;75903;52.510;13.396;2024-02-26T04:30:05;99895.28;;;7.69;71.10
85499;BME280;75903;52.510;13.396;2024-02-26T04:32:31;99891.25;;;7.65;70.25
85499;BME280;75903;52.510;13.396;2024-02-26T04:34:57;99898.72;;;7.69;71.03
85499;BME280;75903;52.510;13.396;2024-02-26T04:37:22;99897.66;;;7.72;70.95
85499;BME280;75903;52.510;13.396;2024-02-26T04:39:47;99904.53;;;7.73;69.86
85499;BME280;75903;52.510;13.396;2024-02-26T04:42:13;99903.44;;;7.75;70.27
85499;BME280;75903;52.510;13.396;2024-02-26T04:44:39;99905.50;;;7.72;69.94
85499;BME280;75903;52.510;13.396;2024-02-26T04:47:04;99913.38;;;7.72;70.46
85499;BME280;75903;52.510;13.396;2024-02-26T04:49:30;99919.47;;;7.72;70.31
85499;BME280;75903;52.510;13.396;2024-02-26T04:51:55;99923.88;;;7.72;71.18
85499;BME280;75903;52.510;13.396;2024-02-26T04:54:21;99920.28;;;7.73;70.59
85499;BME280;75903;52.510;13.396;2024-02-26T04:56:46;99929.34;;;7.69;71.21
85499;BME280;75903;52.510;13.396;2024-02-26T04:59:12;99931.41;;;7.65;71.44
85499;BME280;75903;52.510;13.396;2024-02-26T05:01:37;99892.81;;;7.47;70.36
85499;BME280;75903;52.510;13.396;2024-02-26T05:04:03;99911.66;;;7.61;70.41
85499;BME280;75903;52.510;13.396;2024-02-26T05:06:29;99906.09;;;7.55;71.64
85499;BME280;75903;52.510;13.396;2024-02-26T05:08:54;99924.34;;;7.56;72.03
85499;BME280;75903;52.510;13.396;2024-02-26T05:11:19;99921.81;;;7.55;71.40
85499;BME280;75903;52.510;13.396;2024-02-26T05:13:45;99932.06;;;7.58;71.79
85499;BME280;75903;52.510;13.396;2024-02-26T05:16:10;99938.03;;;7.60;71.91
85499;BME280;75903;52.510;13.396;2024-02-26T05:18:36;99934.22;;;7.53;71.58
85499;BME280;75903;52.510;13.396;2024-02-26T05:21:01;99942.56;;;7.58;71.11
85499;BME280;75903;52.510;13.396;2024-02-26T05:23:28;99944.47;;;7.56;71.68
85499;BME280;75903;52.510;13.396;2024-02-26T05:25:54;99952.22;;;7.57;71.95
85499;BME280;75903;52.510;13.396;2024-02-26T05:28:19;99946.25;;;7.55;71.06
85499;BME280;75903;52.510;13.396;2024-02-26T05:30:45;99954.69;;;7.59;71.99
85499;BME280;75903;52.510;13.396;2024-02-26T05:33:11;99951.13;;;7.60;71.63
85499;BME280;75903;52.510;13.396;2024-02-26T05:35:37;99949.34;;;7.60;71.62
85499;BME280;75903;52.510;13.396;2024-02-26T05:38:02;99946.13;;;7.57;71.44
85499;BME280;75903;52.510;13.396;2024-02-26T05:40:28;99947.53;;;7.61;71.93
85499;BME280;75903;52.510;13.396;2024-02-26T05:42:53;99955.41;;;7.61;71.19
85499;BME280;75903;52.510;13.396;2024-02-26T05:45:18;99954.19;;;7.65;71.21
85499;BME280;75903;52.510;13.396;2024-02-26T05:47:44;99956.00;;;7.64;71.59
85499;BME280;75903;52.510;13.396;2024-02-26T05:50:10;99960.53;;;7.62;71.99
85499;BME280;75903;52.510;13.396;2024-02-26T05:52:36;99940.69;;;7.49;71.29
85499;BME280;75903;52.510;13.396;2024-02-26T05:55:04;99959.69;;;7.62;71.42
85499;BME280;75903;52.510;13.396;2024-02-26T05:57:29;99966.84;;;7.60;71.11
85499;BME280;75903;52.510;13.396;2024-02-26T05:59:54;99965.78;;;7.62;72.20
85499;BME280;75903;52.510;13.396;2024-02-26T06:02:20;99971.53;;;7.56;71.96
85499;BME280;75903;52.510;13.396;2024-02-26T06:04:45;99977.47;;;7.58;71.22
85499;BME280;75903;52.510;13.396;2024-02-26T06:07:12;99973.19;;;7.57;71.70
85499;BME280;75903;52.510;13.396;2024-02-26T06:09:37;99972.09;;;7.60;71.75
85499;BME280;75903;52.510;13.396;2024-02-26T06:12:03;99971.53;;;7.56;71.70
85499;BME280;75903;52.510;13.396;2024-02-26T06:14:28;99979.94;;;8.11;83.38
85499;BME280;75903;52.510;13.396;2024-02-26T06:16:53;99976.75;;;8.96;83.31
85499;BME280;75903;52.510;13.396;2024-02-26T06:19:19;99975.56;;;9.75;73.89
85499;BME280;75903;52.510;13.396;2024-02-26T06:21:44;99969.06;;;10.53;67.83
85499;BME280;75903;52.510;13.396;2024-02-26T06:24:10;99976.47;;;10.84;61.33
85499;BME280;75903;52.510;13.396;2024-02-26T06:26:35;99976.34;;;10.41;61.68
85499;BME280;75903;52.510;13.396;2024-02-26T06:29:00;99972.59;;;9.97;62.43
85499;BME280;75903;52.510;13.396;2024-02-26T06:31:26;99976.88;;;9.52;64.50
85499;BME280;75903;52.510;13.396;2024-02-26T06:33:53;99955.72;;;9.06;65.16
85499;BME280;75903;52.510;13.396;2024-02-26T06:36:19;99983.38;;;8.91;65.91
85499;BME280;75903;52.510;13.396;2024-02-26T06:38:44;99987.34;;;8.75;67.18
85499;BME280;75903;52.510;13.396;2024-02-26T06:41:09;99990.94;;;8.65;67.68
85499;BME280;75903;52.510;13.396;2024-02-26T06:43:35;99986.78;;;8.53;68.22
85499;BME280;75903;52.510;13.396;2024-02-26T06:46:00;99998.19;;;8.42;68.75
85499;BME280;75903;52.510;13.396;2024-02-26T06:48:25;99993.75;;;8.33;68.12
85499;BME280;75903;52.510;13.396;2024-02-26T06:50:51;99982.59;;;8.20;68.65
85499;BME280;75903;52.510;13.396;2024-02-26T06:53:16;100008.81;;;8.31;68.90
85499;BME280;75903;52.510;13.396;2024-02-26T06:55:42;100011.81;;;8.27;69.31
85499;BME280;75903;52.510;13.396;2024-02-26T06:58:08;100020.66;;;8.26;69.71
85499;BME280;75903;52.510;13.396;2024-02-26T07:00:33;100008.16;;;8.18;69.13
85499;BME280;75903;52.510;13.396;2024-02-26T07:02:59;100018.09;;;8.15;70.37
85499;BME280;75903;52.510;13.396;2024-02-26T07:05:24;100026.22;;;8.12;69.93
85499;BME280;75903;52.510;13.396;2024-02-26T07:07:50;100028.16;;;8.10;70.63
85499;BME280;75903;52.510;13.396;2024-02-26T07:10:15;100023.47;;;8.13;69.98
85499;BME280;75903;52.510;13.396;2024-02-26T07:12:40;100033.28;;;8.11;70.46
85499;BME280;75903;52.510;13.396;2024-02-26T07:15:06;100020.63;;;7.96;69.93
85499;BME280;75903;52.510;13.396;2024-02-26T07:17:33;100023.09;;;7.97;70.01
85499;BME280;75903;52.510;13.396;2024-02-26T07:20:02;100039.75;;;8.07;70.36
85499;BME280;75903;52.510;13.396;2024-02-26T07:22:30;100044.97;;;8.07;70.88
85499;BME280;75903;52.510;13.396;2024-02-26T07:24:56;100038.34;;;8.03;70.55
85499;BME280;75903;52.510;13.396;2024-02-26T07:27:21;100042.19;;;7.99;70.60
85499;BME280;75903;52.510;13.396;2024-02-26T07:29:46;100033.66;;;8.07;70.45
85499;BME280;75903;52.510;13.396;2024-02-26T07:32:12;99908.44;;;7.28;69.92
85499;BME280;75903;52.510;13.396;2024-02-26T07:34:37;100047.34;;;8.10;70.35
85499;BME280;75903;52.510;13.396;2024-02-26T07:37:06;100041.84;;;8.13;70.99
85499;BME280;75903;52.510;13.396;2024-02-26T07:39:32;100041.69;;;8.15;70.40
85499;BME280;75903;52.510;13.396;2024-02-26T07:41:57;100047.94;;;8.14;70.80
85499;BME280;75903;52.510;13.396;2024-02-26T07:44:23;100039.47;;;8.10;70.95
85499;BME280;75903;52.510;13.396;2024-02-26T07:46:48;100036.31;;;8.16;69.96
85499;BME280;75903;52.510;13.396;2024-02-26T07:49:14;100032.75;;;8.17;71.05
85499;BME280;75903;52.510;13.396;2024-02-26T07:51:39;100014.25;;;8.19;70.61
85499;BME280;75903;52.510;13.396;2024-02-26T07:54:04;100037.16;;;8.37;70.04
85499;BME280;75903;52.510;13.396;2024-02-26T07:56:30;100034.91;;;8.63;70.89
85499;BME280;75903;52.510;13.396;2024-02-26T07:58:55;100038.72;;;8.99;72.08
85499;BME280;75903;52.510;13.396;2024-02-26T08:01:20;100026.00;;;9.13;68.37
85499;BME280;75903;52.510;13.396;2024-02-26T08:03:46;100028.06;;;9.10;67.61
85499;BME280;75903;52.510;13.396;2024-02-26T08:06:11;100030.44;;;9.13;66.89
85499;BME280;75903;52.510;13.396;2024-02-26T08:08:36;100031.78;;;9.07;66.99
85499;BME280;75903;52.510;13.396;2024-02-26T08:11:02;100036.78;;;9.01;67.48
85499;BME280;75903;52.510;13.396;2024-02-26T08:13:27;100039.28;;;9.02;67.60
85499;BME280;75903;52.510;13.396;2024-02-26T08:15:52;100041.50;;;8.97;67.99
85499;BME280;75903;52.510;13.396;2024-02-26T08:18:18;100036.09;;;8.99;68.18
85499;BME280;75903;52.510;13.396;2024-02-26T08:20:44;100039.13;;;9.04;67.28
85499;BME280;75903;52.510;13.396;2024-02-26T08:23:10;100038.59;;;9.10;67.57
85499;BME280;75903;52.510;13.396;2024-02-26T08:25:35;100042.59;;;9.14;67.89
85499;BME280;75903;52.510;13.396;2024-02-26T08:28:01;100042.34;;;9.17;67.25
85499;BME280;75903;52.510;13.396;2024-02-26T08:30:26;100026.97;;;9.03;67.84
85499;BME280;75903;52.510;13.396;2024-02-26T08:32:51;100037.78;;;9.19;66.95
85499;BME280;75903;52.510;13.396;2024-02-26T08:35:17;100039.31;;;9.31;66.78
85499;BME280;75903;52.510;13.396;2024-02-26T08:37:46;100031.81;;;9.36;66.79
85499;BME280;75903;52.510;13.396;2024-02-26T08:40:13;100038.06;;;9.44;66.56
85499;BME280;75903;52.510;13.396;2024-02-26T08:42:38;100038.59;;;9.48;66.57
85499;BME280;75903;52.510;13.396;2024-02-26T08:45:04;100035.00;;;9.49;66.74
85499;BME280;75903;52.510;13.396;2024-02-26T08:47:29;100034.72;;;9.52;66.45
85499;BME280;75903;52.510;13.396;2024-02-26T08:49:55;100026.69;;;9.63;66.15
85499;BME280;75903;52.510;13.396;2024-02-26T08:52:20;100034.44;;;9.74;66.85
85499;BME280;75903;52.510;13.396;2024-02-26T08:54:47;100030.81;;;9.85;68.21
85499;BME280;75903;52.510;13.396;2024-02-26T08:57:12;100022.63;;;9.97;67.17
85499;BME280;75903;52.510;13.396;2024-02-26T08:59:38;100033.53;;;10.21;66.64
85499;BME280;75903;52.510;13.396;2024-02-26T09:02:03;100028.38;;;10.29;64.97
85499;BME280;75903;52.510;13.396;2024-02-26T09:04:28;100025.53;;;10.40;64.80
85499;BME280;75903;52.510;13.396;2024-02-26T09:06:54;100037.19;;;10.48;64.24
85499;BME280;75903;52.510;13.396;2024-02-26T09:09:20;100021.91;;;10.51;64.84
85499;BME280;75903;52.510;13.396;2024-02-26T09:11:47;100031.16;;;10.55;63.95
85499;BME280;75903;52.510;13.396;2024-02-26T09:14:12;100026.97;;;10.62;64.05
85499;BME280;75903;52.510;13.396;2024-02-26T09:16:38;100030.81;;;10.68;64.21
85499;BME280;75903;52.510;13.396;2024-02-26T09:19:03;100034.13;;;10.70;63.57
85499;BME280;75903;52.510;13.396;2024-02-26T09:21:28;100016.25;;;10.64;62.94
85499;BME280;75903;52.510;13.396;2024-02-26T09:23:54;100025.09;;;10.72;63.22
85499;BME280;75903;52.510;13.396;2024-02-26T09:26:19;100021.34;;;10.75;63.31
85499;BME280;75903;52.510;13.396;2024-02-26T09:28:45;100030.63;;;10.79;63.80
85499;BME280;75903;52.510;13.396;2024-02-26T09:31:10;100030.88;;;10.85;63.57
85499;BME280;75903;52.510;13.396;2024-02-26T09:33:36;100042.78;;;10.89;63.46
85499;BME280;75903;52.510;13.396;2024-02-26T09:36:02;100028.09;;;10.87;62.59
85499;BME280;75903;52.510;13.396;2024-02-26T09:38:28;100036.53;;;10.90;62.55
85499;BME280;75903;52.510;13.396;2024-02-26T09:40:56;100039.00;;;10.92;62.04
85499;BME280;75903;52.510;13.396;2024-02-26T09:43:22;100036.53;;;10.90;61.92
85499;BME280;75903;52.510;13.396;2024-02-26T09:45:51;100038.03;;;10.93;61.71
85499;BME280;75903;52.510;13.396;2024-02-26T09:48:17;100025.81;;;10.92;61.63
85499;BME280;75903;52.510;13.396;2024-02-26T09:50:43;100047.25;;;11.06;61.56
85499;BME280;75903;52.510;13.396;2024-02-26T09:53:10;100044.97;;;11.11;61.21
85499;BME280;75903;52.510;13.396;2024-02-26T09:55:36;100047.84;;;11.18;60.95
85499;BME280;75903;52.510;13.396;2024-02-26T09:58:04;100049.59;;;11.27;60.67
85499;BME280;75903;52.510;13.396;2024-02-26T10:00:31;100044.72;;;11.32;60.58
85499;BME280;75903;52.510;13.396;2024-02-26T10:03:04;100044.94;;;11.39;60.48
85499;BME280;75903;52.510;13.396;2024-02-26T10:05:31;100049.28;;;11.48;60.28
85499;BME280;75903;52.510;13.396;2024-02-26T10:07:57;100052.63;;;11.50;60.09
85499;BME280;75903;52.510;13.396;2024-02-26T10:10:25;100055.66;;;11.55;59.77
85499;BME280;75903;52.510;13.396;2024-02-26T10:12:52;100047.78;;;11.63;59.12
85499;BME280;75903;52.510;13.396;2024-02-26T10:15:18;100053.31;;;11.69;59.73
85499;BME280;75903;52.510;13.396;2024-02-26T10:17:43;100053.53;;;11.76;59.59
85499;BME280;75903;52.510;13.396;2024-02-26T10:20:15;100052.59;;;11.85;59.55
85499;BME280;75903;52.510;13.396;2024-02-26T10:22:41;100044.22;;;11.89;58.54
85499;BME280;75903;52.510;13.396;2024-02-26T10:25:08;100038.34;;;11.95;58.79
85499;BME280;75903;52.510;13.396;2024-02-26T10:27:34;100049.31;;;12.08;58.27
85499;BME280;75903;52.510;13.396;2024-02-26T10:30:03;100052.66;;;12.18;58.64
85499;BME280;75903;52.510;13.396;2024-02-26T10:32:30;100032.53;;;12.17;58.14
85499;BME280;75903;52.510;13.396;2024-02-26T10:34:55;100050.81;;;12.37;57.54
85499;BME280;75903;52.510;13.396;2024-02-26T10:37:22;100054.16;;;12.47;58.29
85499;BME280;75903;52.510;13.396;2024-02-26T10:39:47;100042.28;;;12.51;58.09
85499;BME280;75903;52.510;13.396;2024-02-26T10:42:13;100046.97;;;12.65;57.31
85499;BME280;75903;52.510;13.396;2024-02-26T10:44:40;100045.88;;;12.75;56.78
85499;BME280;75903;52.510;13.396;2024-02-26T10:47:07;100050.03;;;12.86;56.02
85499;BME280;75903;52.510;13.396;2024-02-26T10:49:35;100039.63;;;12.92;55.60
85499;BME280;75903;52.510;13.396;2024-02-26T10:52:01;100054.09;;;13.06;55.90
85499;BME280;75903;52.510;13.396;2024-02-26T10:54:29;100028.66;;;13.05;57.74
85499;BME280;75903;52.510;13.396;2024-02-26T10:56:56;100046.69;;;13.26;54.76
85499;BME280;75903;52.510;13.396;2024-02-26T10:59:22;100045.06;;;13.25;54.75
85499;BME280;75903;52.510;13.396;2024-02-26T11:01:48;100051.00;;;13.27;53.73
85499;BME280;75903;52.510;13.396;2024-02-26T11:04:15;100046.88;;;13.32;54.07
85499;BME280;75903;52.510;13.396;2024-02-26T11:06:42;100049.72;;;13.47;53.53
85499;BME280;75903;52.510;13.396;2024-02-26T11:09:08;100039.63;;;13.50;52.74
85499;BME280;75903;52.510;13.396;2024-02-26T11:11:38;100022.41;;;13.62;52.42
85499;BME280;75903;52.510;13.396;2024-02-26T11:14:06;100049.88;;;13.85;52.01
85499;BME280;75903;52.510;13.396;2024-02-26T11:16:34;100034.66;;;13.71;52.10
85499;BME280;75903;52.510;13.396;2024-02-26T11:19:01;100051.03;;;13.83;51.66
85499;BME280;75903;52.510;13.396;2024-02-26T11:21:27;100043.25;;;13.98;51.95
85499;BME280;75903;52.510;13.396;2024-02-26T11:24:02;100035.13;;;13.99;50.25
85499;BME280;75903;52.510;13.396;2024-02-26T11:26:28;100038.75;;;14.14;50.95
85499;BME280;75903;52.510;13.396;2024-02-26T11:28:53;100049.50;;;14.29;53.63
85499;BME280;75903;52.510;13.396;2024-02-26T11:31:19;100059.22;;;14.52;52.91
85499;BME280;75903;52.510;13.396;2024-02-26T11:33:52;100049.81;;;14.89;51.97
85499;BME280;75903;52.510;13.396;2024-02-26T11:36:18;100043.25;;;15.07;50.29
85499;BME280;75903;52.510;13.396;2024-02-26T11:38:46;100038.47;;;15.25;49.29
85499;BME280;75903;52.510;13.396;2024-02-26T11:41:15;100046.34;;;15.41;49.10
85499;BME280;75903;52.510;13.396;2024-02-26T11:43:51;100045.66;;;15.47;48.75
85499;BME280;75903;52.510;13.396;2024-02-26T11:46:27;100029.47;;;15.57;47.98
85499;BME280;75903;52.510;13.396;2024-02-26T11:49:03;100045.13;;;15.52;47.47
85499;BME280;75903;52.510;13.396;2024-02-26T11:51:33;100040.06;;;15.42;47.21
85499;BME280;75903;52.510;13.396;2024-02-26T11:53:59;100040.72;;;15.44;47.39
85499;BME280;75903;52.510;13.396;2024-02-26T11:56:24;100043.38;;;15.44;48.08
85499;BME280;75903;52.510;13.396;2024-02-26T11:59:01;100042.81;;;15.72;50.44
85499;BME280;75903;52.510;13.396;2024-02-26T12:01:46;100046.63;;;15.92;49.37
85499;BME280;75903;52.510;13.396;2024-02-26T12:04:24;100043.84;;;16.08;49.07
85499;BME280;75903;52.510;13.396;2024-02-26T12:07:00;100047.41;;;16.15;47.78
85499;BME280;75903;52.510;13.396;2024-02-26T12:09:39;100043.63;;;16.09;47.16
85499;BME280;75903;52.510;13.396;2024-02-26T12:12:07;100046.31;;;16.09;47.22
85499;BME280;75903;52.510;13.396;2024-02-26T12:14:35;100027.41;;;16.04;47.34
85499;BME280;75903;52.510;13.396;2024-02-26T12:17:02;100047.13;;;16.24;47.59
85499;BME280;75903;52.510;13.396;2024-02-26T12:19:31;100037.53;;;16.38;46.99
85499;BME280;75903;52.510;13.396;2024-02-26T12:21:57;100037.16;;;16.41;45.41
85499;BME280;75903;52.510;13.396;2024-02-26T12:24:22;100047.59;;;16.42;46.08
85499;BME280;75903;52.510;13.396;2024-02-26T12:26:48;100036.91;;;16.36;45.57
85499;BME280;75903;52.510;13.396;2024-02-26T12:29:14;100043.56;;;16.46;45.97
85499;BME280;75903;52.510;13.396;2024-02-26T12:31:40;100044.91;;;16.65;45.33
85499;BME280;75903;52.510;13.396;2024-02-26T12:34:06;100050.22;;;16.65;45.35
85499;BME280;75903;52.510;13.396;2024-02-26T12:36:33;100055.25;;;16.89;44.82
85499;BME280;75903;52.510;13.396;2024-02-26T12:39:00;100047.50;;;17.09;44.74
85499;BME280;75903;52.510;13.396;2024-02-26T12:41:27;100048.56;;;17.14;44.58
85499;BME280;75903;52.510;13.396;2024-02-26T12:43:53;100055.00;;;17.41;43.75
85499;BME280;75903;52.510;13.396;2024-02-26T12:46:18;100043.09;;;17.37;42.79